sensor_id;sensor_type;location;lat;lon;timestamp;P1;durP1;ratioP1;P2;durP2;ratioP2
59766;SDS011;46248;58.364;25.582;2022-07-01T00:00:26;4.25;;;3.20;;
59766;SDS011;46248;58.364;25.582;2022-07-01T00:03:49;24.50;;;4.45;;
59766;SDS011;46248;58.364;25.582;2022-07-01T00:07:12;2.72;;;2.53;;
59766;SDS011;46248;58.364;25.582;2022-07-01T00:10:35;3.53;;;3.22;;
59766;SDS011;46248;58.364;25.582;2022-07-01T00:13:57;3.40;;;3.10;;
59766;SDS011;46248;58.364;25.582;2022-07-01T00:17:19;4.45;;;3.28;;
59766;SDS011;46248;58.364;25.582;2022-07-01T00:20:42;6.15;;;3.28;;
59766;SDS011;46248;58.364;25.582;2022-07-01T00:24:04;4.50;;;3.22;;
59766;SDS011;46248;58.364;25.582;2022-07-01T00:27:27;4.45;;;3.60;;
59766;SDS011;46248;58.364;25.582;2022-07-01T00:30:49;3.88;;;3.45;;
59766;SDS011;46248;58.364;25.582;2022-07-01T00:34:11;3.38;;;3.05;;
59766;SDS011;46248;58.364;25.582;2022-07-01T00:37:34;3.33;;;3.03;;
59766;SDS011;46248;58.364;25.582;2022-07-01T00:40:56;3.22;;;2.88;;
59766;SDS011;46248;58.364;25.582;2022-07-01T00:44:18;3.33;;;2.85;;
59766;SDS011;46248;58.364;25.582;2022-07-01T00:47:41;3.33;;;3.03;;
59766;SDS011;46248;58.364;25.582;2022-07-01T00:51:03;6.97;;;3.35;;
59766;SDS011;46248;58.364;25.582;2022-07-01T00:54:27;4.35;;;3.20;;
59766;SDS011;46248;58.364;25.582;2022-07-01T00:57:52;5.72;;;3.20;;
59766;SDS011;46248;58.364;25.582;2022-07-01T01:01:14;3.65;;;3.10;;
59766;SDS011;46248;58.364;25.582;2022-07-01T01:04:36;4.32;;;3.08;;
59766;SDS011;46248;58.364;25.582;2022-07-01T01:07:59;3.88;;;3.53;;
59766;SDS011;46248;58.364;25.582;2022-07-01T01:11:22;3.53;;;3.10;;
59766;SDS011;46248;58.364;25.582;2022-07-01T01:14:45;3.00;;;2.80;;
59766;SDS011;46248;58.364;25.582;2022-07-01T01:18:08;4.55;;;2.85;;
59766;SDS011;46248;58.364;25.582;2022-07-01T01:21:31;3.92;;;2.97;;
59766;SDS011;46248;58.364;25.582;2022-07-01T01:24:53;3.25;;;2.95;;
59766;SDS011;46248;58.364;25.582;2022-07-01T01:28:15;6.18;;;2.72;;
59766;SDS011;46248;58.364;25.582;2022-07-01T01:31:37;3.33;;;3.03;;
59766;SDS011;46248;58.364;25.582;2022-07-01T01:34:59;3.83;;;3.05;;
59766;SDS011;46248;58.364;25.582;2022-07-01T01:38:22;3.30;;;3.00;;
59766;SDS011;46248;58.364;25.582;2022-07-01T01:41:45;4.10;;;2.58;;
59766;SDS011;46248;58.364;25.582;2022-07-01T01:45:08;4.47;;;2.90;;
59766;SDS011;46248;58.364;25.582;2022-07-01T01:48:31;4.70;;;2.97;;
59766;SDS011;46248;58.364;25.582;2022-07-01T01:51:53;3.88;;;3.20;;
59766;SDS011;46248;58.364;25.582;2022-07-01T01:55:17;3.40;;;2.78;;
59766;SDS011;46248;58.364;25.582;2022-07-01T01:58:39;4.45;;;3.10;;
59766;SDS011;46248;58.364;25.582;2022-07-01T02:02:04;4.28;;;3.10;;
59766;SDS011;46248;58.364;25.582;2022-07-01T02:05:26;5.55;;;2.78;;
59766;SDS011;46248;58.364;25.582;2022-07-01T02:08:48;5.22;;;2.47;;
59766;SDS011;46248;58.364;25.582;2022-07-01T02:12:11;4.38;;;2.88;;
59766;SDS011;46248;58.364;25.582;2022-07-01T02:15:33;4.22;;;3.05;;
59766;SDS011;46248;58.364;25.582;2022-07-01T02:18:56;3.47;;;2.80;;
59766;SDS011;46248;58.364;25.582;2022-07-01T02:22:18;5.15;;;3.28;;
59766;SDS011;46248;58.364;25.582;2022-07-01T02:25:39;4.88;;;2.63;;
59766;SDS011;46248;58.364;25.582;2022-07-01T02:29:03;3.90;;;2.65;;
59766;SDS011;46248;58.364;25.582;2022-07-01T02:32:25;2.90;;;2.22;;
59766;SDS011;46248;58.364;25.582;2022-07-01T02:35:47;4.07;;;2.78;;
59766;SDS011;46248;58.364;25.582;2022-07-01T02:39:09;3.13;;;2.47;;
59766;SDS011;46248;58.364;25.582;2022-07-01T02:42:31;3.17;;;2.47;;
59766;SDS011;46248;58.364;25.582;2022-07-01T02:45:58;4.72;;;2.80;;
59766;SDS011;46248;58.364;25.582;2022-07-01T02:49:20;2.53;;;2.22;;
59766;SDS011;46248;58.364;25.582;2022-07-01T02:52:42;3.33;;;2.63;;
59766;SDS011;46248;58.364;25.582;2022-07-01T02:56:04;3.85;;;2.50;;
59766;SDS011;46248;58.364;25.582;2022-07-01T02:59:26;6.93;;;2.65;;
59766;SDS011;46248;58.364;25.582;2022-07-01T03:02:50;3.08;;;2.78;;
59766;SDS011;46248;58.364;25.582;2022-07-01T03:06:12;5.00;;;2.95;;
59766;SDS011;46248;58.364;25.582;2022-07-01T03:09:34;5.82;;;2.72;;
59766;SDS011;46248;58.364;25.582;2022-07-01T03:13:00;3.17;;;2.60;;
59766;SDS011;46248;58.364;25.582;2022-07-01T03:16:22;2.78;;;2.50;;
59766;SDS011;46248;58.364;25.582;2022-07-01T03:19:45;3.80;;;3.03;;
59766;SDS011;46248;58.364;25.582;2022-07-01T03:23:07;4.05;;;2.65;;
59766;SDS011;46248;58.364;25.582;2022-07-01T03:26:29;3.30;;;2.60;;
59766;SDS011;46248;58.364;25.582;2022-07-01T03:29:57;3.47;;;2.40;;
59766;SDS011;46248;58.364;25.582;2022-07-01T03:33:19;2.80;;;2.20;;
59766;SDS011;46248;58.364;25.582;2022-07-01T03:36:42;3.50;;;2.58;;
59766;SDS011;46248;58.364;25.582;2022-07-01T03:40:04;2.50;;;2.30;;
59766;SDS011;46248;58.364;25.582;2022-07-01T03:43:27;2.42;;;2.22;;
59766;SDS011;46248;58.364;25.582;2022-07-01T03:46:50;3.40;;;2.10;;
59766;SDS011;46248;58.364;25.582;2022-07-01T03:50:12;3.83;;;2.38;;
59766;SDS011;46248;58.364;25.582;2022-07-01T03:53:35;2.58;;;2.38;;
59766;SDS011;46248;58.364;25.582;2022-07-01T03:57:15;2.40;;;2.20;;
59766;SDS011;46248;58.364;25.582;2022-07-01T04:00:37;3.00;;;2.70;;
59766;SDS011;46248;58.364;25.582;2022-07-01T04:04:00;3.40;;;3.10;;
59766;SDS011;46248;58.364;25.582;2022-07-01T04:07:22;2.85;;;2.60;;
59766;SDS011;46248;58.364;25.582;2022-07-01T04:10:46;3.00;;;2.15;;
59766;SDS011;46248;58.364;25.582;2022-07-01T04:14:10;3.30;;;2.35;;
59766;SDS011;46248;58.364;25.582;2022-07-01T04:17:32;3.50;;;2.40;;
59766;SDS011;46248;58.364;25.582;2022-07-01T04:20:54;2.58;;;2.28;;
59766;SDS011;46248;58.364;25.582;2022-07-01T04:24:34;2.58;;;2.25;;
59766;SDS011;46248;58.364;25.582;2022-07-01T04:27:58;4.10;;;1.88;;
59766;SDS011;46248;58.364;25.582;2022-07-01T04:31:22;3.55;;;2.30;;
59766;SDS011;46248;58.364;25.582;2022-07-01T04:34:44;3.60;;;2.42;;
59766;SDS011;46248;58.364;25.582;2022-07-01T04:38:06;2.45;;;2.03;;
59766;SDS011;46248;58.364;25.582;2022-07-01T04:41:33;4.85;;;2.03;;
59766;SDS011;46248;58.364;25.582;2022-07-01T04:45:14;3.95;;;2.47;;
59766;SDS011;46248;58.364;25.582;2022-07-01T04:48:36;3.40;;;1.92;;
59766;SDS011;46248;58.364;25.582;2022-07-01T04:51:58;2.10;;;2.00;;
59766;SDS011;46248;58.364;25.582;2022-07-01T04:55:21;2.42;;;1.88;;
59766;SDS011;46248;58.364;25.582;2022-07-01T04:58:43;4.22;;;2.20;;
59766;SDS011;46248;58.364;25.582;2022-07-01T05:02:06;10.00;;;2.60;;
59766;SDS011;46248;58.364;25.582;2022-07-01T05:05:32;2.05;;;1.90;;
59766;SDS011;46248;58.364;25.582;2022-07-01T05:08:53;3.38;;;2.25;;
59766;SDS011;46248;58.364;25.582;2022-07-01T05:12:16;2.47;;;2.17;;
59766;SDS011;46248;58.364;25.582;2022-07-01T05:15:38;3.28;;;2.33;;
59766;SDS011;46248;58.364;25.582;2022-07-01T05:19:01;2.20;;;2.00;;
59766;SDS011;46248;58.364;25.582;2022-07-01T05:22:41;2.17;;;1.92;;
59766;SDS011;46248;58.364;25.582;2022-07-01T05:26:03;2.38;;;2.10;;
59766;SDS011;46248;58.364;25.582;2022-07-01T05:29:26;2.42;;;2.05;;
59766;SDS011;46248;58.364;25.582;2022-07-01T05:32:48;4.07;;;2.10;;
59766;SDS011;46248;58.364;25.582;2022-07-01T05:36:11;1.77;;;1.67;;
59766;SDS011;46248;58.364;25.582;2022-07-01T05:39:34;1.70;;;1.52;;
59766;SDS011;46248;58.364;25.582;2022-07-01T05:43:03;1.80;;;1.70;;
59766;SDS011;46248;58.364;25.582;2022-07-01T05:46:25;2.20;;;2.00;;
59766;SDS011;46248;58.364;25.582;2022-07-01T05:49:47;2.25;;;1.88;;
59766;SDS011;46248;58.364;25.582;2022-07-01T05:53:10;4.25;;;2.00;;
59766;SDS011;46248;58.364;25.582;2022-07-01T05:56:32;2.55;;;1.65;;
59766;SDS011;46248;58.364;25.582;2022-07-01T05:59:54;1.70;;;1.60;;
59766;SDS011;46248;58.364;25.582;2022-07-01T06:03:16;2.63;;;1.90;;
59766;SDS011;46248;58.364;25.582;2022-07-01T06:06:39;2.55;;;1.48;;
59766;SDS011;46248;58.364;25.582;2022-07-01T06:10:04;4.43;;;1.80;;
59766;SDS011;46248;58.364;25.582;2022-07-01T06:13:27;3.00;;;1.77;;
59766;SDS011;46248;58.364;25.582;2022-07-01T06:16:50;2.20;;;1.70;;
59766;SDS011;46248;58.364;25.582;2022-07-01T06:20:14;2.30;;;1.73;;
59766;SDS011;46248;58.364;25.582;2022-07-01T06:23:36;2.30;;;2.08;;
59766;SDS011;46248;58.364;25.582;2022-07-01T06:26:59;2.33;;;1.75;;
59766;SDS011;46248;58.364;25.582;2022-07-01T06:30:21;5.07;;;1.90;;
59766;SDS011;46248;58.364;25.582;2022-07-01T06:33:43;2.47;;;1.83;;
59766;SDS011;46248;58.364;25.582;2022-07-01T06:37:05;3.22;;;1.80;;
59766;SDS011;46248;58.364;25.582;2022-07-01T06:40:27;3.67;;;1.85;;
59766;SDS011;46248;58.364;25.582;2022-07-01T06:43:51;2.72;;;1.90;;
59766;SDS011;46248;58.364;25.582;2022-07-01T06:47:13;5.40;;;1.90;;
59766;SDS011;46248;58.364;25.582;2022-07-01T06:50:35;2.03;;;1.85;;
59766;SDS011;46248;58.364;25.582;2022-07-01T06:53:57;4.60;;;2.00;;
59766;SDS011;46248;58.364;25.582;2022-07-01T06:57:19;1.88;;;1.75;;
59766;SDS011;46248;58.364;25.582;2022-07-01T07:00:42;3.28;;;1.75;;
59766;SDS011;46248;58.364;25.582;2022-07-01T07:04:04;4.60;;;2.10;;
59766;SDS011;46248;58.364;25.582;2022-07-01T07:07:26;3.97;;;2.20;;
59766;SDS011;46248;58.364;25.582;2022-07-01T07:10:48;3.97;;;1.88;;
59766;SDS011;46248;58.364;25.582;2022-07-01T07:14:11;1.58;;;1.40;;
59766;SDS011;46248;58.364;25.582;2022-07-01T07:17:35;2.95;;;1.50;;
59766;SDS011;46248;58.364;25.582;2022-07-01T07:20:57;2.83;;;1.92;;
59766;SDS011;46248;58.364;25.582;2022-07-01T07:24:19;3.10;;;1.90;;
59766;SDS011;46248;58.364;25.582;2022-07-01T07:27:41;4.55;;;1.75;;
59766;SDS011;46248;58.364;25.582;2022-07-01T07:31:06;1.50;;;1.40;;
59766;SDS011;46248;58.364;25.582;2022-07-01T07:34:30;3.10;;;1.83;;
59766;SDS011;46248;58.364;25.582;2022-07-01T07:37:52;1.52;;;1.42;;
59766;SDS011;46248;58.364;25.582;2022-07-01T07:41:14;2.78;;;1.50;;
59766;SDS011;46248;58.364;25.582;2022-07-01T07:44:36;2.08;;;1.48;;
59766;SDS011;46248;58.364;25.582;2022-07-01T07:47:59;5.20;;;1.58;;
59766;SDS011;46248;58.364;25.582;2022-07-01T07:51:22;3.08;;;1.60;;
59766;SDS011;46248;58.364;25.582;2022-07-01T07:54:45;3.88;;;1.92;;
59766;SDS011;46248;58.364;25.582;2022-07-01T07:58:07;4.88;;;1.50;;
59766;SDS011;46248;58.364;25.582;2022-07-01T08:01:29;5.03;;;1.75;;
59766;SDS011;46248;58.364;25.582;2022-07-01T08:04:51;3.63;;;1.70;;
59766;SDS011;46248;58.364;25.582;2022-07-01T08:08:14;7.53;;;2.15;;
59766;SDS011;46248;58.364;25.582;2022-07-01T08:11:42;3.88;;;1.60;;
59766;SDS011;46248;58.364;25.582;2022-07-01T08:15:04;1.88;;;1.77;;
59766;SDS011;46248;58.364;25.582;2022-07-01T08:18:28;5.50;;;1.60;;
59766;SDS011;46248;58.364;25.582;2022-07-01T08:21:50;2.88;;;1.70;;
59766;SDS011;46248;58.364;25.582;2022-07-01T08:25:13;1.77;;;1.67;;
59766;SDS011;46248;58.364;25.582;2022-07-01T08:28:35;1.88;;;1.50;;
59766;SDS011;46248;58.364;25.582;2022-07-01T08:31:57;2.83;;;1.80;;
59766;SDS011;46248;58.364;25.582;2022-07-01T08:35:19;3.08;;;1.42;;
59766;SDS011;46248;58.364;25.582;2022-07-01T08:38:41;3.47;;;1.65;;
59766;SDS011;46248;58.364;25.582;2022-07-01T08:42:05;1.95;;;1.75;;
59766;SDS011;46248;58.364;25.582;2022-07-01T08:45:29;3.20;;;2.03;;
59766;SDS011;46248;58.364;25.582;2022-07-01T08:48:53;2.38;;;1.73;;
59766;SDS011;46248;58.364;25.582;2022-07-01T08:52:15;8.07;;;1.67;;
59766;SDS011;46248;58.364;25.582;2022-07-01T08:55:37;3.47;;;1.75;;
59766;SDS011;46248;58.364;25.582;2022-07-01T08:59:21;2.10;;;1.27;;
59766;SDS011;46248;58.364;25.582;2022-07-01T09:02:58;4.35;;;1.95;;
59766;SDS011;46248;58.364;25.582;2022-07-01T09:06:22;1.95;;;1.48;;
59766;SDS011;46248;58.364;25.582;2022-07-01T09:09:45;1.55;;;1.45;;
59766;SDS011;46248;58.364;25.582;2022-07-01T09:13:08;2.78;;;1.75;;
59766;SDS011;46248;58.364;25.582;2022-07-01T09:16:32;1.75;;;1.60;;
59766;SDS011;46248;58.364;25.582;2022-07-01T09:20:01;2.65;;;1.70;;
59766;SDS011;46248;58.364;25.582;2022-07-01T09:23:23;2.25;;;1.90;;
59766;SDS011;46248;58.364;25.582;2022-07-01T09:26:51;2.83;;;1.58;;
59766;SDS011;46248;58.364;25.582;2022-07-01T09:30:14;2.03;;;1.48;;
59766;SDS011;46248;58.364;25.582;2022-07-01T09:33:37;6.95;;;1.95;;
59766;SDS011;46248;58.364;25.582;2022-07-01T09:36:59;3.47;;;1.85;;
59766;SDS011;46248;58.364;25.582;2022-07-01T09:40:21;4.00;;;1.90;;
59766;SDS011;46248;58.364;25.582;2022-07-01T09:43:43;1.50;;;1.40;;
59766;SDS011;46248;58.364;25.582;2022-07-01T09:47:05;2.28;;;1.90;;
59766;SDS011;46248;58.364;25.582;2022-07-01T09:50:30;1.95;;;1.65;;
59766;SDS011;46248;58.364;25.582;2022-07-01T09:53:56;4.45;;;1.55;;
59766;SDS011;46248;58.364;25.582;2022-07-01T09:57:18;2.17;;;1.98;;
59766;SDS011;46248;58.364;25.582;2022-07-01T10:00:42;4.40;;;1.90;;
59766;SDS011;46248;58.364;25.582;2022-07-01T10:04:05;4.03;;;1.60;;
59766;SDS011;46248;58.364;25.582;2022-07-01T10:07:34;2.22;;;1.50;;
59766;SDS011;46248;58.364;25.582;2022-07-01T10:11:10;3.30;;;1.95;;
59766;SDS011;46248;58.364;25.582;2022-07-01T10:14:50;3.88;;;1.98;;
59766;SDS011;46248;58.364;25.582;2022-07-01T10:18:23;2.40;;;1.48;;
59766;SDS011;46248;58.364;25.582;2022-07-01T10:21:45;3.45;;;2.00;;
59766;SDS011;46248;58.364;25.582;2022-07-01T10:29:03;2.20;;;2.00;;
59766;SDS011;46248;58.364;25.582;2022-07-01T10:32:27;2.58;;;1.80;;
59766;SDS011;46248;58.364;25.582;2022-07-01T10:36:11;2.17;;;1.73;;
59766;SDS011;46248;58.364;25.582;2022-07-01T10:39:56;2.33;;;1.80;;
59766;SDS011;46248;58.364;25.582;2022-07-01T10:43:31;3.17;;;1.73;;
59766;SDS011;46248;58.364;25.582;2022-07-01T10:46:55;4.93;;;2.08;;
59766;SDS011;46248;58.364;25.582;2022-07-01T10:53:49;3.78;;;2.55;;
59766;SDS011;46248;58.364;25.582;2022-07-01T10:57:28;2.65;;;1.88;;
59766;SDS011;46248;58.364;25.582;2022-07-01T11:00:53;3.20;;;2.17;;
59766;SDS011;46248;58.364;25.582;2022-07-01T11:04:17;6.03;;;1.98;;
59766;SDS011;46248;58.364;25.582;2022-07-01T11:07:40;4.05;;;1.95;;
59766;SDS011;46248;58.364;25.582;2022-07-01T11:11:04;3.42;;;2.03;;
59766;SDS011;46248;58.364;25.582;2022-07-01T11:14:26;2.05;;;1.90;;
59766;SDS011;46248;58.364;25.582;2022-07-01T11:17:50;2.00;;;1.90;;
59766;SDS011;46248;58.364;25.582;2022-07-01T11:21:12;4.05;;;3.40;;
59766;SDS011;46248;58.364;25.582;2022-07-01T11:24:35;5.43;;;2.72;;
59766;SDS011;46248;58.364;25.582;2022-07-01T11:27:57;3.58;;;2.42;;
59766;SDS011;46248;58.364;25.582;2022-07-01T11:31:32;3.78;;;2.17;;
59766;SDS011;46248;58.364;25.582;2022-07-01T11:34:55;2.28;;;2.08;;
59766;SDS011;46248;58.364;25.582;2022-07-01T11:38:20;3.67;;;2.50;;
59766;SDS011;46248;58.364;25.582;2022-07-01T11:42:02;3.92;;;2.30;;
59766;SDS011;46248;58.364;25.582;2022-07-01T11:45:26;3.85;;;2.60;;
59766;SDS011;46248;58.364;25.582;2022-07-01T11:48:49;2.53;;;2.28;;
59766;SDS011;46248;58.364;25.582;2022-07-01T11:52:13;2.58;;;2.15;;
59766;SDS011;46248;58.364;25.582;2022-07-01T11:55:36;3.13;;;2.38;;
59766;SDS011;46248;58.364;25.582;2022-07-01T11:58:58;3.10;;;2.78;;
59766;SDS011;46248;58.364;25.582;2022-07-01T12:02:22;3.88;;;3.28;;
59766;SDS011;46248;58.364;25.582;2022-07-01T12:05:45;3.72;;;2.33;;
59766;SDS011;46248;58.364;25.582;2022-07-01T12:09:08;2.15;;;2.05;;
59766;SDS011;46248;58.364;25.582;2022-07-01T12:12:34;4.88;;;2.50;;
59766;SDS011;46248;58.364;25.582;2022-07-01T12:16:04;4.22;;;2.22;;
59766;SDS011;46248;58.364;25.582;2022-07-01T12:19:27;2.90;;;2.50;;
59766;SDS011;46248;58.364;25.582;2022-07-01T12:22:50;5.22;;;2.53;;
59766;SDS011;46248;58.364;25.582;2022-07-01T12:26:13;2.90;;;2.33;;
59766;SDS011;46248;58.364;25.582;2022-07-01T12:29:51;3.20;;;2.20;;
59766;SDS011;46248;58.364;25.582;2022-07-01T12:33:14;2.63;;;2.42;;
59766;SDS011;46248;58.364;25.582;2022-07-01T12:36:46;6.50;;;2.75;;
59766;SDS011;46248;58.364;25.582;2022-07-01T12:40:19;3.63;;;2.75;;
59766;SDS011;46248;58.364;25.582;2022-07-01T12:43:44;2.42;;;1.90;;
59766;SDS011;46248;58.364;25.582;2022-07-01T12:47:16;6.68;;;2.60;;
59766;SDS011;46248;58.364;25.582;2022-07-01T12:50:38;4.03;;;2.30;;
59766;SDS011;46248;58.364;25.582;2022-07-01T12:54:00;3.90;;;2.63;;
59766;SDS011;46248;58.364;25.582;2022-07-01T12:57:29;4.75;;;2.53;;
59766;SDS011;46248;58.364;25.582;2022-07-01T13:00:59;4.55;;;2.85;;
59766;SDS011;46248;58.364;25.582;2022-07-01T13:04:25;2.63;;;2.03;;
59766;SDS011;46248;58.364;25.582;2022-07-01T13:07:47;2.63;;;2.42;;
59766;SDS011;46248;58.364;25.582;2022-07-01T13:11:09;2.92;;;2.40;;
59766;SDS011;46248;58.364;25.582;2022-07-01T13:14:32;3.72;;;2.30;;
59766;SDS011;46248;58.364;25.582;2022-07-01T13:17:55;6.72;;;2.10;;
59766;SDS011;46248;58.364;25.582;2022-07-01T13:21:17;2.83;;;2.47;;
59766;SDS011;46248;58.364;25.582;2022-07-01T13:24:39;3.22;;;2.50;;
59766;SDS011;46248;58.364;25.582;2022-07-01T13:28:02;3.75;;;2.35;;
59766;SDS011;46248;58.364;25.582;2022-07-01T13:31:24;6.38;;;2.15;;
59766;SDS011;46248;58.364;25.582;2022-07-01T13:34:48;2.95;;;2.20;;
59766;SDS011;46248;58.364;25.582;2022-07-01T13:38:10;4.22;;;2.30;;
59766;SDS011;46248;58.364;25.582;2022-07-01T13:41:33;4.22;;;2.38;;
59766;SDS011;46248;58.364;25.582;2022-07-01T13:44:55;2.17;;;2.03;;
59766;SDS011;46248;58.364;25.582;2022-07-01T13:48:17;3.28;;;2.10;;
59766;SDS011;46248;58.364;25.582;2022-07-01T13:51:40;3.53;;;2.10;;
59766;SDS011;46248;58.364;25.582;2022-07-01T13:55:03;4.05;;;1.90;;
59766;SDS011;46248;58.364;25.582;2022-07-01T13:58:26;2.92;;;2.00;;
59766;SDS011;46248;58.364;25.582;2022-07-01T14:01:47;2.92;;;1.90;;
59766;SDS011;46248;58.364;25.582;2022-07-01T14:05:10;2.47;;;1.80;;
59766;SDS011;46248;58.364;25.582;2022-07-01T14:08:34;6.10;;;2.10;;
59766;SDS011;46248;58.364;25.582;2022-07-01T14:11:56;2.05;;;1.95;;
59766;SDS011;46248;58.364;25.582;2022-07-01T14:15:17;3.20;;;1.88;;
59766;SDS011;46248;58.364;25.582;2022-07-01T14:18:39;1.83;;;1.73;;
59766;SDS011;46248;58.364;25.582;2022-07-01T14:22:05;3.97;;;2.00;;
59766;SDS011;46248;58.364;25.582;2022-07-01T14:25:29;3.60;;;2.30;;
59766;SDS011;46248;58.364;25.582;2022-07-01T14:28:52;3.35;;;2.10;;
59766;SDS011;46248;58.364;25.582;2022-07-01T14:32:14;2.38;;;1.98;;
59766;SDS011;46248;58.364;25.582;2022-07-01T14:35:35;2.65;;;1.98;;
59766;SDS011;46248;58.364;25.582;2022-07-01T14:38:58;5.22;;;1.90;;
59766;SDS011;46248;58.364;25.582;2022-07-01T14:42:21;3.00;;;1.88;;
59766;SDS011;46248;58.364;25.582;2022-07-01T14:45:44;4.43;;;1.58;;
59766;SDS011;46248;58.364;25.582;2022-07-01T14:49:06;2.90;;;2.00;;
59766;SDS011;46248;58.364;25.582;2022-07-01T14:52:30;2.10;;;1.88;;
59766;SDS011;46248;58.364;25.582;2022-07-01T14:55:51;2.17;;;1.98;;
59766;SDS011;46248;58.364;25.582;2022-07-01T14:59:15;1.88;;;1.77;;
59766;SDS011;46248;58.364;25.582;2022-07-01T15:02:37;3.15;;;1.88;;
59766;SDS011;46248;58.364;25.582;2022-07-01T15:05:59;3.17;;;2.00;;
59766;SDS011;46248;58.364;25.582;2022-07-01T15:09:21;2.33;;;1.88;;
59766;SDS011;46248;58.364;25.582;2022-07-01T15:12:44;2.13;;;1.80;;
59766;SDS011;46248;58.364;25.582;2022-07-01T15:16:07;2.10;;;2.00;;
59766;SDS011;46248;58.364;25.582;2022-07-01T15:19:34;4.45;;;1.90;;
59766;SDS011;46248;58.364;25.582;2022-07-01T15:22:58;1.67;;;1.58;;
59766;SDS011;46248;58.364;25.582;2022-07-01T15:26:20;4.20;;;2.13;;
59766;SDS011;46248;58.364;25.582;2022-07-01T15:29:43;1.92;;;1.75;;
59766;SDS011;46248;58.364;25.582;2022-07-01T15:33:06;2.80;;;1.80;;
59766;SDS011;46248;58.364;25.582;2022-07-01T15:36:28;3.28;;;1.98;;
59766;SDS011;46248;58.364;25.582;2022-07-01T15:39:50;2.00;;;1.75;;
59766;SDS011;46248;58.364;25.582;2022-07-01T15:43:21;4.13;;;1.95;;
59766;SDS011;46248;58.364;25.582;2022-07-01T15:46:43;1.92;;;1.83;;
59766;SDS011;46248;58.364;25.582;2022-07-01T15:50:08;4.80;;;2.10;;
59766;SDS011;46248;58.364;25.582;2022-07-01T15:53:30;2.03;;;1.60;;
59766;SDS011;46248;58.364;25.582;2022-07-01T15:56:53;3.00;;;2.22;;
59766;SDS011;46248;58.364;25.582;2022-07-01T16:00:15;2.45;;;1.60;;
59766;SDS011;46248;58.364;25.582;2022-07-01T16:03:39;1.63;;;1.52;;
59766;SDS011;46248;58.364;25.582;2022-07-01T16:07:14;1.80;;;1.50;;
59766;SDS011;46248;58.364;25.582;2022-07-01T16:10:41;4.45;;;1.88;;
59766;SDS011;46248;58.364;25.582;2022-07-01T16:14:05;2.85;;;1.90;;
59766;SDS011;46248;58.364;25.582;2022-07-01T16:17:29;1.85;;;1.70;;
59766;SDS011;46248;58.364;25.582;2022-07-01T16:20:55;3.33;;;1.70;;
59766;SDS011;46248;58.364;25.582;2022-07-01T16:24:20;2.25;;;2.05;;
59766;SDS011;46248;58.364;25.582;2022-07-01T16:27:42;2.20;;;1.98;;
59766;SDS011;46248;58.364;25.582;2022-07-01T16:31:11;2.00;;;1.80;;
59766;SDS011;46248;58.364;25.582;2022-07-01T16:34:33;2.40;;;2.08;;
59766;SDS011;46248;58.364;25.582;2022-07-01T16:37:56;2.85;;;2.13;;
59766;SDS011;46248;58.364;25.582;2022-07-01T16:41:34;2.53;;;1.90;;
59766;SDS011;46248;58.364;25.582;2022-07-01T16:45:01;1.70;;;1.60;;
59766;SDS011;46248;58.364;25.582;2022-07-01T16:48:25;3.28;;;2.00;;
59766;SDS011;46248;58.364;25.582;2022-07-01T16:51:53;2.30;;;2.10;;
59766;SDS011;46248;58.364;25.582;2022-07-01T16:55:18;3.55;;;2.05;;
59766;SDS011;46248;58.364;25.582;2022-07-01T16:58:44;2.17;;;1.73;;
59766;SDS011;46248;58.364;25.582;2022-07-01T17:02:13;3.22;;;1.98;;
59766;SDS011;46248;58.364;25.582;2022-07-01T17:05:37;2.47;;;1.80;;
59766;SDS011;46248;58.364;25.582;2022-07-01T17:09:00;2.15;;;2.00;;
59766;SDS011;46248;58.364;25.582;2022-07-01T17:12:23;3.85;;;2.35;;
59766;SDS011;46248;58.364;25.582;2022-07-01T17:15:47;5.00;;;2.35;;
59766;SDS011;46248;58.364;25.582;2022-07-01T17:19:09;2.60;;;2.40;;
59766;SDS011;46248;58.364;25.582;2022-07-01T17:22:34;2.90;;;2.63;;
59766;SDS011;46248;58.364;25.582;2022-07-01T17:26:05;5.13;;;2.38;;
59766;SDS011;46248;58.364;25.582;2022-07-01T17:32:58;3.47;;;2.10;;
59766;SDS011;46248;58.364;25.582;2022-07-01T17:36:21;3.22;;;2.30;;
59766;SDS011;46248;58.364;25.582;2022-07-01T17:39:44;2.80;;;2.58;;
59766;SDS011;46248;58.364;25.582;2022-07-01T17:43:07;3.97;;;2.08;;
59766;SDS011;46248;58.364;25.582;2022-07-01T17:46:31;3.90;;;2.00;;
59766;SDS011;46248;58.364;25.582;2022-07-01T17:49:55;4.43;;;2.10;;
59766;SDS011;46248;58.364;25.582;2022-07-01T17:53:18;2.40;;;2.20;;
59766;SDS011;46248;58.364;25.582;2022-07-01T17:56:41;6.88;;;2.30;;
59766;SDS011;46248;58.364;25.582;2022-07-01T18:00:03;4.32;;;2.38;;
59766;SDS011;46248;58.364;25.582;2022-07-01T18:03:26;3.40;;;1.98;;
59766;SDS011;46248;58.364;25.582;2022-07-01T18:06:50;5.28;;;2.30;;
59766;SDS011;46248;58.364;25.582;2022-07-01T18:10:13;4.50;;;2.78;;
59766;SDS011;46248;58.364;25.582;2022-07-01T18:13:38;2.70;;;2.50;;
59766;SDS011;46248;58.364;25.582;2022-07-01T18:17:15;3.40;;;2.08;;
59766;SDS011;46248;58.364;25.582;2022-07-01T18:20:41;7.15;;;2.83;;
59766;SDS011;46248;58.364;25.582;2022-07-01T18:24:13;6.10;;;2.70;;
59766;SDS011;46248;58.364;25.582;2022-07-01T18:27:37;2.85;;;2.53;;
59766;SDS011;46248;58.364;25.582;2022-07-01T18:31:00;2.53;;;2.33;;
59766;SDS011;46248;58.364;25.582;2022-07-01T18:34:26;4.38;;;2.72;;
59766;SDS011;46248;58.364;25.582;2022-07-01T18:37:59;3.00;;;2.60;;
59766;SDS011;46248;58.364;25.582;2022-07-01T18:41:22;3.35;;;3.05;;
59766;SDS011;46248;58.364;25.582;2022-07-01T18:44:44;4.63;;;3.03;;
59766;SDS011;46248;58.364;25.582;2022-07-01T18:48:06;7.03;;;2.63;;
59766;SDS011;46248;58.364;25.582;2022-07-01T18:51:28;3.78;;;2.97;;
59766;SDS011;46248;58.364;25.582;2022-07-01T18:54:50;4.32;;;3.00;;
59766;SDS011;46248;58.364;25.582;2022-07-01T18:58:14;4.10;;;2.92;;
59766;SDS011;46248;58.364;25.582;2022-07-01T19:01:43;3.70;;;3.13;;
59766;SDS011;46248;58.364;25.582;2022-07-01T19:05:12;4.50;;;3.08;;
59766;SDS011;46248;58.364;25.582;2022-07-01T19:08:33;3.20;;;2.92;;
59766;SDS011;46248;58.364;25.582;2022-07-01T19:11:56;4.57;;;3.15;;
59766;SDS011;46248;58.364;25.582;2022-07-01T19:15:20;5.65;;;3.58;;
59766;SDS011;46248;58.364;25.582;2022-07-01T19:18:42;5.30;;;3.10;;
59766;SDS011;46248;58.364;25.582;2022-07-01T19:22:04;4.53;;;3.53;;
59766;SDS011;46248;58.364;25.582;2022-07-01T19:25:27;5.38;;;3.60;;
59766;SDS011;46248;58.364;25.582;2022-07-01T19:28:49;4.10;;;3.35;;
59766;SDS011;46248;58.364;25.582;2022-07-01T19:32:12;4.50;;;3.58;;
59766;SDS011;46248;58.364;25.582;2022-07-01T19:35:34;6.43;;;3.35;;
59766;SDS011;46248;58.364;25.582;2022-07-01T19:38:56;4.38;;;3.90;;
59766;SDS011;46248;58.364;25.582;2022-07-01T19:42:18;4.38;;;3.28;;
59766;SDS011;46248;58.364;25.582;2022-07-01T19:45:40;5.75;;;3.92;;
59766;SDS011;46248;58.364;25.582;2022-07-01T19:49:04;4.70;;;3.70;;
59766;SDS011;46248;58.364;25.582;2022-07-01T19:52:45;5.25;;;3.63;;
59766;SDS011;46248;58.364;25.582;2022-07-01T19:57:14;5.78;;;3.85;;
59766;SDS011;46248;58.364;25.582;2022-07-01T20:00:36;5.57;;;4.00;;
59766;SDS011;46248;58.364;25.582;2022-07-01T20:03:58;3.60;;;3.30;;
59766;SDS011;46248;58.364;25.582;2022-07-01T20:07:23;6.90;;;4.20;;
59766;SDS011;46248;58.364;25.582;2022-07-01T20:10:45;4.22;;;3.83;;
59766;SDS011;46248;58.364;25.582;2022-07-01T20:14:07;5.30;;;3.80;;
59766;SDS011;46248;58.364;25.582;2022-07-01T20:17:29;6.72;;;4.20;;
59766;SDS011;46248;58.364;25.582;2022-07-01T20:20:51;5.20;;;4.22;;